< < Back
Terminal Aerodrome Forecast


Current Version              Previous Versions:   1  2  3  4  5  6  7  8  9  

Terminal Aerodrome Forecast

092
FTUS42 KTAE 082320
TAFTLH
TAF
KTLH 082320Z 0900/0924 28014G25KT P6SM FEW070
     FM090300 29010G18KT P6SM SKC
     FM091500 28016G26KT P6SM FEW250=



Latest METAR

761
SAUS80 KWBC 091600
MTRTLH
METAR KTLH 091553Z 29015G30KT 10SM FEW050 10/M08 A3003 RMK AO2 PK WND
29030/1548 SLP167 T01001083


USA.gov is the U.S. government's official web portal to all federal, state and local government web resources and services.